createdAt,value
2023-03-17T00:00:44.556Z,55.52
2023-03-17T00:03:32.206Z,55.83
2023-03-17T00:06:02.105Z,55.73
2023-03-17T00:08:34.075Z,55.72
2023-03-17T00:11:10.205Z,55.95
2023-03-17T00:13:38.827Z,55.87
2023-03-17T00:16:20.042Z,55.78
2023-03-17T00:18:50.409Z,56.01
2023-03-17T00:21:26.137Z,56.03
2023-03-17T00:23:56.380Z,56.17
2023-03-17T00:26:26.038Z,56.02
2023-03-17T00:28:55.312Z,56.34
2023-03-17T00:31:29.754Z,56.52
2023-03-17T00:33:59.748Z,56.50
2023-03-17T00:36:31.055Z,56.79
2023-03-17T00:39:00.110Z,56.84
2023-03-17T00:41:29.736Z,57.11
2023-03-17T00:43:57.863Z,57.23
2023-03-17T00:46:36.178Z,57.40
2023-03-17T00:51:45.111Z,57.59
2023-03-17T00:54:14.581Z,57.81
2023-03-17T00:56:51.347Z,57.97
2023-03-17T00:59:26.195Z,58.07
2023-03-17T01:01:55.609Z,58.05
2023-03-17T01:04:24.519Z,58.30
2023-03-17T01:06:54.287Z,58.46
2023-03-17T01:09:27.201Z,58.72
2023-03-17T01:11:56.074Z,58.82
2023-03-17T01:14:25.061Z,58.91
2023-03-17T01:16:56.741Z,59.08
2023-03-17T01:19:25.399Z,59.55
2023-03-17T01:21:53.700Z,59.30
2023-03-17T01:24:22.461Z,59.41
2023-03-17T01:26:51.155Z,59.35
2023-03-17T01:29:20.238Z,59.76
2023-03-17T01:31:48.570Z,59.62
2023-03-17T01:34:16.767Z,59.53
2023-03-17T01:36:45.447Z,59.43
2023-03-17T01:39:14.658Z,59.49
2023-03-17T01:41:43.212Z,59.56
2023-03-17T01:44:17.419Z,60.01
2023-03-17T01:46:47.707Z,60.01
2023-03-17T01:49:30.585Z,59.94
2023-03-17T01:52:18.216Z,60.34
2023-03-17T01:55:16.267Z,60.37
2023-03-17T01:57:53.681Z,60.89
2023-03-17T02:00:24.981Z,60.68
2023-03-17T02:02:56.354Z,60.85
2023-03-17T02:05:28.624Z,61.03
2023-03-17T02:07:57.570Z,60.93
2023-03-17T02:10:29.052Z,61.25
2023-03-17T02:13:04.271Z,61.25
2023-03-17T02:15:50.200Z,61.55
2023-03-17T02:18:21.980Z,61.67
2023-03-17T02:20:50.438Z,61.66
2023-03-17T02:23:23.557Z,61.68
2023-03-17T02:25:54.236Z,61.85
2023-03-17T02:28:28.159Z,62.14
2023-03-17T02:30:57.571Z,62.15
2023-03-17T02:33:27.888Z,62.17
2023-03-17T02:35:57.232Z,62.31
2023-03-17T02:38:26.218Z,62.31
2023-03-17T02:40:54.360Z,62.21
2023-03-17T02:43:23.132Z,62.26
2023-03-17T02:45:51.417Z,62.26
2023-03-17T02:48:21.000Z,62.46
2023-03-17T02:50:49.237Z,62.54
2023-03-17T02:53:17.711Z,62.91
2023-03-17T02:55:45.874Z,62.71
2023-03-17T02:58:14.042Z,62.59
2023-03-17T03:00:42.835Z,62.92
2023-03-17T03:03:10.954Z,63.03
2023-03-17T03:05:39.409Z,63.24
2023-03-17T03:08:07.856Z,63.18
2023-03-17T03:10:36.476Z,63.17
2023-03-17T03:13:05.076Z,63.25
2023-03-17T03:15:33.332Z,63.18
2023-03-17T03:18:02.768Z,63.32
2023-03-17T03:20:31.171Z,63.62
2023-03-17T03:23:02.095Z,63.66
2023-03-17T03:25:30.306Z,63.38
2023-03-17T03:27:59.314Z,63.62
2023-03-17T03:30:28.616Z,63.63
2023-03-17T03:32:57.234Z,63.62
2023-03-17T03:35:25.508Z,63.92
2023-03-17T03:37:53.851Z,63.61
2023-03-17T03:40:25.858Z,63.80
2023-03-17T03:42:54.459Z,63.71
2023-03-17T03:45:23.180Z,63.93
2023-03-17T03:47:51.749Z,63.87
2023-03-17T03:50:21.273Z,63.96
2023-03-17T03:52:50.304Z,64.08
2023-03-17T03:55:19.011Z,63.87
2023-03-17T03:57:47.318Z,64.06
2023-03-17T04:00:16.508Z,64.08
2023-03-17T04:02:48.047Z,64.13
2023-03-17T04:05:18.755Z,64.55
2023-03-17T04:07:48.114Z,64.50
2023-03-17T04:10:19.945Z,64.64
2023-03-17T04:12:48.812Z,64.34
2023-03-17T04:15:19.759Z,64.54
2023-03-17T04:17:48.147Z,64.11
2023-03-17T04:20:17.244Z,64.67
2023-03-17T04:22:45.698Z,64.77
2023-03-17T04:25:15.696Z,64.72
2023-03-17T04:27:44.830Z,64.64
2023-03-17T04:30:17.088Z,64.54
2023-03-17T04:32:46.586Z,64.63
2023-03-17T04:35:17.443Z,65.00
2023-03-17T04:37:45.761Z,64.94
2023-03-17T04:40:15.939Z,65.06
2023-03-17T04:42:44.666Z,65.16
2023-03-17T04:45:17.408Z,65.19
2023-03-17T04:47:47.428Z,65.13
2023-03-17T04:50:15.987Z,65.23
2023-03-17T04:52:44.431Z,65.19
2023-03-17T04:55:12.833Z,65.32
2023-03-17T04:57:42.038Z,65.40
2023-03-17T05:00:15.630Z,65.39
2023-03-17T05:02:44.356Z,65.65
2023-03-17T05:05:13.148Z,65.64
2023-03-17T05:07:42.116Z,65.89
2023-03-17T05:10:12.585Z,65.96
2023-03-17T05:12:41.355Z,65.89
2023-03-17T05:15:11.376Z,65.91
2023-03-17T05:17:40.198Z,65.80
2023-03-17T05:20:13.270Z,65.86
2023-03-17T05:22:43.712Z,66.06
2023-03-17T05:25:11.815Z,66.15
2023-03-17T05:27:49.775Z,66.21
2023-03-17T05:30:18.619Z,66.18
2023-03-17T05:32:47.167Z,66.17
2023-03-17T05:35:15.780Z,66.21
2023-03-17T05:37:44.072Z,66.20
2023-03-17T05:40:13.156Z,66.15
2023-03-17T05:42:42.832Z,66.36
2023-03-17T05:45:11.924Z,66.23
2023-03-17T05:47:40.154Z,66.30
2023-03-17T05:50:10.579Z,66.03
2023-03-17T05:52:39.400Z,65.75
2023-03-17T05:55:08.652Z,65.80
2023-03-17T05:57:36.829Z,65.64
2023-03-17T06:00:05.589Z,65.49
2023-03-17T06:02:34.409Z,65.19
2023-03-17T06:05:04.048Z,65.20
2023-03-17T06:07:41.283Z,65.43
2023-03-17T06:10:13.905Z,65.15
2023-03-17T06:12:42.169Z,64.60
2023-03-17T06:15:10.941Z,64.76
2023-03-17T06:17:40.092Z,64.62
2023-03-17T06:20:09.317Z,64.45
2023-03-17T06:22:39.743Z,64.52
2023-03-17T06:25:13.891Z,64.45
2023-03-17T06:27:42.858Z,64.20
2023-03-17T06:30:12.611Z,64.35
2023-03-17T06:32:40.810Z,64.13
2023-03-17T06:35:09.665Z,63.90
2023-03-17T06:37:38.425Z,63.89
2023-03-17T06:40:10.322Z,63.76
2023-03-17T06:42:38.310Z,63.89
2023-03-17T06:45:09.469Z,63.88
2023-03-17T06:47:38.411Z,63.68
2023-03-17T06:50:09.893Z,63.61
2023-03-17T06:52:38.800Z,63.57
2023-03-17T06:55:08.705Z,63.46
2023-03-17T06:57:37.559Z,63.39
2023-03-17T07:00:07.193Z,63.23
2023-03-17T07:02:35.769Z,63.03
2023-03-17T07:05:04.742Z,62.82
2023-03-17T07:07:32.936Z,62.79
2023-03-17T07:10:02.292Z,62.53
2023-03-17T07:12:30.594Z,62.26
2023-03-17T07:14:59.679Z,62.16
2023-03-17T07:17:28.307Z,61.84
2023-03-17T07:19:59.030Z,61.56
2023-03-17T07:22:27.561Z,61.66
2023-03-17T07:24:55.757Z,61.52
2023-03-17T07:27:25.611Z,61.21
2023-03-17T07:29:54.221Z,60.83
2023-03-17T07:32:22.446Z,60.73
2023-03-17T07:34:50.728Z,60.69
2023-03-17T07:37:19.644Z,60.72
2023-03-17T07:39:48.380Z,60.45
2023-03-17T07:42:17.702Z,60.21
2023-03-17T07:44:46.135Z,59.97
2023-03-17T07:47:15.048Z,59.79
2023-03-17T07:49:44.114Z,59.65
2023-03-17T07:52:12.924Z,59.26
2023-03-17T07:54:43.157Z,59.34
2023-03-17T07:57:12.394Z,59.24
2023-03-17T07:59:41.818Z,59.24
2023-03-17T08:02:16.696Z,59.04
2023-03-17T08:04:45.584Z,58.64
2023-03-17T08:07:14.794Z,58.60
2023-03-17T08:09:43.137Z,58.34
2023-03-17T08:12:11.999Z,58.32
2023-03-17T08:14:41.544Z,58.21
2023-03-17T08:17:10.754Z,57.60
2023-03-17T08:19:39.191Z,57.79
2023-03-17T08:22:08.087Z,57.55
2023-03-17T08:24:37.336Z,57.28
2023-03-17T08:27:05.743Z,57.03
2023-03-17T08:29:35.096Z,56.55
2023-03-17T08:32:03.748Z,56.41
2023-03-17T08:34:32.302Z,56.02
2023-03-17T08:37:01.607Z,55.79
2023-03-17T08:39:30.783Z,55.25
2023-03-17T08:41:59.147Z,55.09
2023-03-17T08:44:27.648Z,55.38
2023-03-17T08:46:57.157Z,54.35
2023-03-17T08:49:26.555Z,53.99
2023-03-17T08:51:54.797Z,53.53
2023-03-17T08:54:23.272Z,53.29
2023-03-17T08:56:51.482Z,53.02
2023-03-17T08:59:19.837Z,53.07
2023-03-17T09:01:49.078Z,53.31
2023-03-17T09:04:17.664Z,53.12
2023-03-17T09:07:01.975Z,52.82
2023-03-17T09:09:32.390Z,52.61
2023-03-17T09:12:03.439Z,52.62
2023-03-17T09:14:43.462Z,52.50
2023-03-17T09:17:14.678Z,52.29
2023-03-17T09:19:43.828Z,52.19
2023-03-17T09:22:14.825Z,52.13
2023-03-17T09:24:44.813Z,52.05
2023-03-17T09:27:13.821Z,52.30
2023-03-17T09:29:42.812Z,52.06
2023-03-17T09:32:11.668Z,51.74
2023-03-17T09:34:40.017Z,51.69
2023-03-17T09:37:10.057Z,51.71
2023-03-17T09:39:38.343Z,50.94
2023-03-17T09:42:28.239Z,51.02
2023-03-17T09:45:20.585Z,50.02
2023-03-17T09:48:01.350Z,49.87
2023-03-17T09:50:53.890Z,49.66
2023-03-17T09:53:28.390Z,48.91
2023-03-17T09:55:59.167Z,49.22
2023-03-17T09:58:35.795Z,49.16
2023-03-17T10:01:07.977Z,49.25
2023-03-17T10:03:37.661Z,48.92
2023-03-17T10:06:30.853Z,48.50
2023-03-17T10:09:40.423Z,48.39
2023-03-17T10:12:42.000Z,47.96
2023-03-17T10:15:23.741Z,47.07
2023-03-17T10:17:52.657Z,46.94
2023-03-17T10:20:26.258Z,46.24
2023-03-17T10:23:01.886Z,46.51
2023-03-17T10:25:37.628Z,45.67
2023-03-17T10:28:12.510Z,45.92
2023-03-17T10:30:40.941Z,45.36
2023-03-17T10:33:09.709Z,44.92
2023-03-17T10:35:39.752Z,43.94
2023-03-17T10:38:17.321Z,44.25
2023-03-17T10:40:54.822Z,43.68
2023-03-17T10:43:29.270Z,43.22
2023-03-17T10:46:06.530Z,43.19
2023-03-17T10:48:38.912Z,43.12
2023-03-17T10:51:10.593Z,43.56
2023-03-17T10:53:44.730Z,43.25
2023-03-17T10:56:42.458Z,43.41
2023-03-17T10:59:28.454Z,43.80
2023-03-17T11:02:00.385Z,44.43
2023-03-17T11:04:39.318Z,43.27
2023-03-17T11:07:21.521Z,42.58
2023-03-17T11:09:51.779Z,42.47
2023-03-17T11:12:27.219Z,41.40
2023-03-17T11:15:00.802Z,40.81
2023-03-17T11:17:35.369Z,40.25
2023-03-17T11:20:34.984Z,40.52
2023-03-17T11:23:10.933Z,40.94
2023-03-17T11:25:42.819Z,40.88
2023-03-17T11:28:21.101Z,40.99
2023-03-17T11:31:31.240Z,41.17
2023-03-17T11:34:07.158Z,39.88
2023-03-17T11:36:44.889Z,39.54
2023-03-17T11:39:17.656Z,39.62
2023-03-17T11:42:07.534Z,39.14
2023-03-17T11:44:44.446Z,38.76
2023-03-17T11:47:18.808Z,38.48
2023-03-17T11:49:58.674Z,38.35
2023-03-17T11:52:39.085Z,38.10
2023-03-17T11:55:16.647Z,37.76
2023-03-17T11:57:58.552Z,38.05
2023-03-17T12:00:45.774Z,37.82
2023-03-17T12:03:28.132Z,37.67
2023-03-17T12:06:01.711Z,38.11
2023-03-17T12:08:30.048Z,37.97
2023-03-17T12:11:02.631Z,37.07
2023-03-17T12:13:40.139Z,36.86
2023-03-17T12:16:18.405Z,36.65
2023-03-17T12:19:32.777Z,36.72
2023-03-17T12:22:21.116Z,35.63
2023-03-17T12:25:18.208Z,35.21
2023-03-17T12:28:04.086Z,35.47
2023-03-17T12:30:45.739Z,35.57
2023-03-17T12:33:40.017Z,35.27
2023-03-17T12:36:14.964Z,35.02
2023-03-17T12:39:12.758Z,35.11
2023-03-17T12:41:44.679Z,34.72
2023-03-17T12:44:39.417Z,33.30
2023-03-17T12:47:46.186Z,33.78
2023-03-17T12:50:45.080Z,33.02
2023-03-17T12:53:30.123Z,33.13
2023-03-17T12:56:27.125Z,33.03
2023-03-17T12:59:06.326Z,33.09
2023-03-17T13:01:39.982Z,32.87
2023-03-17T13:04:22.300Z,32.98
2023-03-17T13:07:10.319Z,32.81
2023-03-17T13:09:50.950Z,33.13
2023-03-17T13:12:46.834Z,32.75
2023-03-17T13:15:37.495Z,32.97
2023-03-17T13:18:15.660Z,33.37
2023-03-17T13:20:59.592Z,33.13
2023-03-17T13:23:40.119Z,32.50
2023-03-17T13:26:11.400Z,32.23
2023-03-17T13:28:50.425Z,32.85
2023-03-17T13:31:31.091Z,31.72
2023-03-17T13:34:18.102Z,31.46
2023-03-17T13:36:55.830Z,31.64
2023-03-17T13:39:25.013Z,31.44
2023-03-17T13:42:26.945Z,31.75
2023-03-17T13:45:09.471Z,31.39
2023-03-17T13:47:42.811Z,31.57
2023-03-17T13:50:22.691Z,31.92
2023-03-17T13:53:10.598Z,32.34
2023-03-17T13:55:43.756Z,31.47
2023-03-17T13:58:12.367Z,30.96
2023-03-17T14:00:45.485Z,30.23
2023-03-17T14:03:20.172Z,30.87
2023-03-17T14:05:52.213Z,30.79
2023-03-17T14:08:39.430Z,31.12
2023-03-17T14:11:22.729Z,30.79
2023-03-17T14:14:00.598Z,31.31
2023-03-17T14:16:35.143Z,31.24
2023-03-17T14:19:20.814Z,31.55
2023-03-17T14:21:49.661Z,31.72
2023-03-17T14:24:29.155Z,31.36
2023-03-17T14:26:57.561Z,31.17
2023-03-17T14:29:31.583Z,31.08
2023-03-17T14:32:13.363Z,31.30
2023-03-17T14:34:54.569Z,31.08
2023-03-17T14:37:23.192Z,31.58
2023-03-17T14:39:55.277Z,31.81
2023-03-17T14:42:31.894Z,32.37
2023-03-17T14:45:06.906Z,31.97
2023-03-17T14:47:41.490Z,32.31
2023-03-17T14:50:31.757Z,32.76
2023-03-17T14:53:01.144Z,32.90
2023-03-17T14:55:43.528Z,33.22
2023-03-17T14:58:30.629Z,33.13
2023-03-17T15:01:08.096Z,33.25
2023-03-17T15:04:06.255Z,33.56
2023-03-17T15:06:37.544Z,33.65
2023-03-17T15:09:24.687Z,33.47
2023-03-17T15:11:56.673Z,33.63
2023-03-17T15:14:38.975Z,34.09
2023-03-17T15:17:20.241Z,33.68
2023-03-17T15:19:52.851Z,34.17
2023-03-17T15:22:29.693Z,33.86
2023-03-17T15:25:02.649Z,34.02
2023-03-17T15:27:32.094Z,34.07
2023-03-17T15:30:00.547Z,33.98
2023-03-17T15:32:29.338Z,33.87
2023-03-17T15:34:58.042Z,34.25
2023-03-17T15:37:29.575Z,33.91
2023-03-17T15:39:58.180Z,34.35
2023-03-17T15:42:32.875Z,34.44
2023-03-17T15:45:04.981Z,34.28
2023-03-17T15:47:37.018Z,34.24
2023-03-17T15:50:16.532Z,34.75
2023-03-17T15:52:48.157Z,35.38
2023-03-17T15:55:29.502Z,35.43
2023-03-17T15:57:58.805Z,35.81
2023-03-17T16:00:30.509Z,36.16
2023-03-17T16:03:04.939Z,36.52
2023-03-17T16:05:35.172Z,36.77
2023-03-17T16:08:03.827Z,37.17
2023-03-17T16:10:34.665Z,37.40
2023-03-17T16:13:03.286Z,37.59
2023-03-17T16:15:37.252Z,37.92
2023-03-17T16:18:18.373Z,38.46
2023-03-17T16:20:49.516Z,38.88
2023-03-17T16:23:25.114Z,38.99
2023-03-17T16:25:59.284Z,38.66
2023-03-17T16:28:33.657Z,39.20
2023-03-17T16:31:04.710Z,39.63
2023-03-17T16:33:40.479Z,39.48
2023-03-17T16:36:15.677Z,39.78
2023-03-17T16:38:44.435Z,39.79
2023-03-17T16:41:24.950Z,40.10
2023-03-17T16:43:59.409Z,40.70
2023-03-17T16:46:34.838Z,40.99
2023-03-17T16:49:04.981Z,40.94
2023-03-17T16:51:33.424Z,40.96
2023-03-17T16:54:01.712Z,41.31
2023-03-17T16:56:31.731Z,41.17
2023-03-17T16:59:01.182Z,41.67
2023-03-17T17:01:30.307Z,41.80
2023-03-17T17:03:58.620Z,41.98
2023-03-17T17:06:27.331Z,42.10
2023-03-17T17:08:55.609Z,42.14
2023-03-17T17:11:23.790Z,42.65
2023-03-17T17:14:02.457Z,42.60
2023-03-17T17:16:34.998Z,43.01
2023-03-17T17:19:04.441Z,42.70
2023-03-17T17:21:33.264Z,43.32
2023-03-17T17:24:01.490Z,43.24
2023-03-17T17:26:32.819Z,43.39
2023-03-17T17:29:01.302Z,43.81
2023-03-17T17:31:30.143Z,43.70
2023-03-17T17:33:58.492Z,43.88
2023-03-17T17:36:27.403Z,44.11
2023-03-17T17:38:55.822Z,43.86
2023-03-17T17:41:34.625Z,44.06
2023-03-17T17:44:02.994Z,44.35
2023-03-17T17:46:32.967Z,44.01
2023-03-17T17:49:01.515Z,44.45
2023-03-17T17:51:31.267Z,44.87
2023-03-17T17:54:00.679Z,44.60
2023-03-17T17:56:29.401Z,45.26
2023-03-17T17:58:57.774Z,44.90
2023-03-17T18:01:26.167Z,44.77
2023-03-17T18:03:54.569Z,45.28
2023-03-17T18:06:23.262Z,45.08
2023-03-17T18:08:51.893Z,45.19
2023-03-17T18:11:21.165Z,45.54
2023-03-17T18:13:49.540Z,45.35
2023-03-17T18:16:19.373Z,45.78
2023-03-17T18:18:47.726Z,46.05
2023-03-17T18:21:17.608Z,46.06
2023-03-17T18:23:49.890Z,46.09
2023-03-17T18:26:18.603Z,46.42
2023-03-17T18:28:48.040Z,46.04
2023-03-17T18:31:25.211Z,46.23
2023-03-17T18:33:57.499Z,46.45
2023-03-17T18:36:27.552Z,46.27
2023-03-17T18:38:56.939Z,46.65
2023-03-17T18:41:27.266Z,46.82
2023-03-17T18:43:55.670Z,46.43
2023-03-17T18:46:24.336Z,46.83
2023-03-17T18:48:52.786Z,46.61
2023-03-17T18:51:21.957Z,47.06
2023-03-17T18:53:50.398Z,46.92
2023-03-17T18:56:18.648Z,46.95
2023-03-17T18:58:47.377Z,47.14
2023-03-17T19:01:16.455Z,47.52
2023-03-17T19:03:45.335Z,47.19
2023-03-17T19:06:17.206Z,47.14
2023-03-17T19:08:47.753Z,47.54
2023-03-17T19:11:19.630Z,47.39
2023-03-17T19:13:54.730Z,47.20
2023-03-17T19:16:29.125Z,47.82
2023-03-17T19:18:59.513Z,47.63
2023-03-17T19:21:33.425Z,47.72
2023-03-17T19:24:03.583Z,47.94
2023-03-17T19:26:34.263Z,48.11
2023-03-17T19:29:03.416Z,48.10
2023-03-17T19:31:31.940Z,47.89
2023-03-17T19:34:00.720Z,48.11
2023-03-17T19:36:36.090Z,48.44
2023-03-17T19:39:06.946Z,48.47
2023-03-17T19:41:38.830Z,48.62
2023-03-17T19:44:07.955Z,48.81
2023-03-17T19:46:37.366Z,49.19
2023-03-17T19:49:08.175Z,49.09
2023-03-17T19:51:39.426Z,49.24
2023-03-17T19:54:08.820Z,49.12
2023-03-17T19:56:38.905Z,49.44
2023-03-17T19:59:09.225Z,49.50
2023-03-17T20:01:38.645Z,49.74
2023-03-17T20:04:10.211Z,49.64
2023-03-17T20:07:00.663Z,49.78
2023-03-17T20:09:38.065Z,49.66
2023-03-17T20:12:06.329Z,50.02
2023-03-17T20:14:37.147Z,49.99
2023-03-17T20:17:05.904Z,49.82
2023-03-17T20:19:41.849Z,49.85
2023-03-17T20:22:11.173Z,49.99
2023-03-17T20:24:45.861Z,50.17
2023-03-17T20:27:17.594Z,50.36
2023-03-17T20:29:59.096Z,50.35
2023-03-17T20:32:32.870Z,50.59
2023-03-17T20:35:06.789Z,50.44
2023-03-17T20:37:46.029Z,50.53
2023-03-17T20:40:23.510Z,50.73
2023-03-17T20:42:52.824Z,50.98
2023-03-17T20:45:21.850Z,50.79
2023-03-17T20:47:50.933Z,51.04
2023-03-17T20:50:19.507Z,51.10
2023-03-17T20:52:49.718Z,51.43
2023-03-17T20:55:25.540Z,51.64
2023-03-17T20:57:54.328Z,51.60
2023-03-17T21:00:23.472Z,51.78
2023-03-17T21:02:52.647Z,51.82
2023-03-17T21:05:25.485Z,51.82
2023-03-17T21:07:54.468Z,52.01
2023-03-17T21:10:23.710Z,52.25
2023-03-17T21:12:52.758Z,52.33
2023-03-17T21:15:23.139Z,52.53
2023-03-17T21:17:51.630Z,52.61
2023-03-17T21:20:21.399Z,52.57
2023-03-17T21:22:50.138Z,52.90
2023-03-17T21:25:19.255Z,52.85
2023-03-17T21:27:47.817Z,53.22
2023-03-17T21:30:16.789Z,52.98
2023-03-17T21:32:45.198Z,53.52
2023-03-17T21:35:14.894Z,53.45
2023-03-17T21:37:43.921Z,53.74
2023-03-17T21:40:15.792Z,54.05
2023-03-17T21:42:44.438Z,54.05
2023-03-17T21:45:12.913Z,54.08
2023-03-17T21:47:44.562Z,54.30
2023-03-17T21:50:15.365Z,54.52
2023-03-17T21:52:49.542Z,54.65
2023-03-17T21:55:21.453Z,54.74
2023-03-17T21:57:50.739Z,54.95
2023-03-17T22:00:44.673Z,55.20
2023-03-17T22:03:14.923Z,55.31
2023-03-17T22:05:44.481Z,55.39
2023-03-17T22:08:13.760Z,55.65
2023-03-17T22:10:42.466Z,55.84
2023-03-17T22:13:14.118Z,56.36
2023-03-17T22:15:43.091Z,56.63
2023-03-17T22:18:23.558Z,57.37
2023-03-17T22:20:57.132Z,57.72
2023-03-17T22:23:26.803Z,57.92
2023-03-17T22:25:56.655Z,58.10
2023-03-17T22:28:25.690Z,58.32
2023-03-17T22:31:00.577Z,58.74
2023-03-17T22:33:36.913Z,59.09
2023-03-17T22:36:09.281Z,59.20
2023-03-17T22:38:38.781Z,59.21
2023-03-17T22:41:12.964Z,59.23
2023-03-17T22:43:42.452Z,59.06
2023-03-17T22:46:12.390Z,59.00
2023-03-17T22:48:41.739Z,59.15
2023-03-17T22:51:13.696Z,59.07
2023-03-17T22:53:46.204Z,59.22
2023-03-17T22:56:16.715Z,59.30
2023-03-17T22:58:46.299Z,59.21
2023-03-17T23:01:16.987Z,59.32
2023-03-17T23:03:46.233Z,59.03
2023-03-17T23:06:19.861Z,58.85
2023-03-17T23:08:48.881Z,58.67
2023-03-17T23:11:26.573Z,58.55
2023-03-17T23:13:57.674Z,58.77
2023-03-17T23:16:32.602Z,59.01
2023-03-17T23:19:05.216Z,59.28
2023-03-17T23:21:38.742Z,59.65
2023-03-17T23:24:14.193Z,59.76
2023-03-17T23:26:43.934Z,59.88
2023-03-17T23:29:15.108Z,60.18
2023-03-17T23:31:43.998Z,60.83
2023-03-17T23:34:14.697Z,60.84
2023-03-17T23:36:43.083Z,61.24
2023-03-17T23:39:11.812Z,61.32
2023-03-17T23:41:40.673Z,61.41
2023-03-17T23:44:09.517Z,61.08
2023-03-17T23:46:39.197Z,60.95
2023-03-17T23:49:12.410Z,60.58
2023-03-17T23:51:41.111Z,60.72
2023-03-17T23:54:10.448Z,60.70
2023-03-17T23:56:42.273Z,60.63
2023-03-17T23:59:10.971Z,60.36
